createdAt,value
2023-04-06T00:00:06.260Z,5.73
2023-04-06T00:02:34.508Z,7.10
2023-04-06T00:05:02.107Z,8.93
2023-04-06T00:07:30.794Z,8.67
2023-04-06T00:09:58.903Z,9.60
2023-04-06T00:12:29.915Z,11.77
2023-04-06T00:14:58.240Z,9.17
2023-04-06T00:17:26.580Z,9.07
2023-04-06T00:19:54.685Z,11.90
2023-04-06T00:22:23.220Z,8.53
2023-04-06T00:24:51.645Z,9.27
2023-04-06T00:27:19.741Z,9.63
2023-04-06T00:29:47.895Z,7.13
2023-04-06T00:32:16.327Z,8.00
2023-04-06T00:34:44.121Z,10.07
2023-04-06T00:37:13.046Z,7.07
2023-04-06T00:39:40.799Z,10.67
2023-04-06T00:42:13.889Z,8.03
2023-04-06T00:44:41.886Z,7.83
2023-04-06T00:47:09.848Z,8.80
2023-04-06T00:49:38.068Z,10.87
2023-04-06T00:52:06.103Z,11.73
2023-04-06T00:54:37.122Z,7.83
2023-04-06T00:57:05.725Z,8.33
2023-04-06T00:59:33.612Z,8.70
2023-04-06T01:02:01.818Z,8.33
2023-04-06T01:04:29.626Z,10.80
2023-04-06T01:06:57.462Z,10.63
2023-04-06T01:09:25.753Z,10.63
2023-04-06T01:11:54.136Z,9.47
2023-04-06T01:14:22.396Z,11.10
2023-04-06T01:16:50.460Z,13.67
2023-04-06T01:19:18.563Z,7.40
2023-04-06T01:21:46.478Z,9.07
2023-04-06T01:24:14.582Z,9.73
2023-04-06T01:26:42.538Z,9.73
2023-04-06T01:29:11.061Z,7.70
2023-04-06T01:31:38.494Z,9.50
2023-04-06T01:34:06.686Z,11.53
2023-04-06T01:36:35.323Z,10.10
2023-04-06T01:39:03.785Z,8.73
2023-04-06T01:41:32.009Z,12.23
2023-04-06T01:44:00.138Z,11.53
2023-04-06T01:46:28.030Z,9.03
2023-04-06T01:48:59.379Z,8.00
2023-04-06T01:51:27.823Z,7.20
2023-04-06T01:53:56.321Z,13.60
2023-04-06T01:56:24.678Z,9.87
2023-04-06T01:58:52.901Z,8.30
2023-04-06T02:01:21.132Z,8.30
2023-04-06T02:03:49.441Z,9.03
2023-04-06T02:06:18.152Z,11.20
2023-04-06T02:08:46.048Z,7.60
2023-04-06T02:11:13.327Z,9.17
2023-04-06T02:13:41.485Z,10.93
2023-04-06T02:16:09.916Z,9.90
2023-04-06T02:18:37.561Z,18.97
2023-04-06T02:21:05.703Z,9.00
2023-04-06T02:23:33.708Z,8.90
2023-04-06T02:26:01.408Z,12.17
2023-04-06T02:28:29.064Z,9.43
2023-04-06T02:30:57.582Z,8.53
2023-04-06T02:33:25.502Z,11.03
2023-04-06T02:35:53.707Z,9.47
2023-04-06T02:38:21.453Z,8.60
2023-04-06T02:40:49.565Z,11.33
2023-04-06T02:43:18.515Z,10.50
2023-04-06T02:45:46.935Z,10.00
2023-04-06T02:48:15.569Z,8.93
2023-04-06T02:50:43.887Z,8.60
2023-04-06T02:53:12.103Z,10.13
2023-04-06T02:55:40.065Z,13.23
2023-04-06T02:58:07.828Z,10.67
2023-04-06T03:00:35.817Z,18.70
2023-04-06T03:03:04.138Z,8.87
2023-04-06T03:05:32.268Z,14.83
2023-04-06T03:08:00.418Z,12.30
2023-04-06T03:10:30.760Z,26.33
2023-04-06T03:12:58.484Z,18.67
2023-04-06T03:15:26.787Z,17.60
2023-04-06T03:17:54.903Z,9.43
2023-04-06T03:20:23.229Z,12.40
2023-04-06T03:22:51.482Z,10.17
2023-04-06T03:25:19.211Z,9.77
2023-04-06T03:27:47.412Z,7.47
2023-04-06T03:30:17.144Z,10.57
2023-04-06T03:32:48.034Z,8.30
2023-04-06T03:35:16.240Z,13.07
2023-04-06T03:37:44.549Z,13.73
2023-04-06T03:40:13.448Z,9.27
2023-04-06T03:42:41.251Z,15.20
2023-04-06T03:45:11.557Z,10.03
2023-04-06T03:47:39.977Z,19.03
2023-04-06T03:50:09.732Z,13.83
2023-04-06T03:52:37.599Z,6.77
2023-04-06T03:55:08.082Z,10.43
2023-04-06T03:57:36.060Z,11.90
2023-04-06T04:00:04.763Z,8.37
2023-04-06T04:02:32.876Z,15.67
2023-04-06T04:05:00.677Z,10.33
2023-04-06T04:07:28.764Z,11.80
2023-04-06T04:09:57.298Z,9.07
2023-04-06T04:12:25.471Z,8.90
2023-04-06T04:14:53.588Z,10.77
2023-04-06T04:17:23.380Z,9.37
2023-04-06T04:19:51.046Z,9.57
2023-04-06T04:22:19.441Z,8.30
2023-04-06T04:24:47.764Z,10.40
2023-04-06T04:27:15.758Z,9.77
2023-04-06T04:29:44.766Z,11.93
2023-04-06T04:32:12.651Z,15.07
2023-04-06T04:34:42.911Z,12.00
2023-04-06T04:37:10.974Z,8.23
2023-04-06T04:39:39.301Z,10.30
2023-04-06T04:42:07.471Z,7.73
2023-04-06T04:44:35.908Z,8.63
2023-04-06T04:47:03.492Z,7.83
2023-04-06T04:49:35.254Z,9.63
2023-04-06T04:52:03.188Z,8.70
2023-04-06T04:54:31.029Z,9.77
2023-04-06T04:56:59.316Z,8.37
2023-04-06T04:59:27.510Z,9.83
2023-04-06T05:01:55.908Z,8.10
2023-04-06T05:04:24.910Z,8.20
2023-04-06T05:06:53.393Z,12.30
2023-04-06T05:09:21.766Z,14.80
2023-04-06T05:11:50.122Z,11.47
2023-04-06T05:14:18.639Z,12.60
2023-04-06T05:16:46.792Z,11.53
2023-04-06T05:19:14.459Z,12.47
2023-04-06T05:21:42.709Z,12.23
2023-04-06T05:24:10.773Z,9.53
2023-04-06T05:26:38.929Z,10.33
2023-04-06T05:29:06.438Z,12.40
2023-04-06T05:31:34.434Z,7.97
2023-04-06T05:34:02.336Z,10.10
2023-04-06T05:36:31.405Z,16.53
2023-04-06T05:38:59.193Z,17.97
2023-04-06T05:41:27.324Z,17.47
2023-04-06T05:43:58.749Z,22.57
2023-04-06T05:46:26.469Z,16.63
2023-04-06T05:48:54.111Z,24.47
2023-04-06T05:51:22.906Z,21.33
2023-04-06T05:53:51.076Z,16.73
2023-04-06T05:56:19.402Z,17.23
2023-04-06T05:58:48.243Z,25.27
2023-04-06T06:01:16.747Z,17.73
2023-04-06T06:03:45.176Z,18.90
2023-04-06T06:06:13.337Z,21.10
2023-04-06T06:08:41.720Z,9.47
2023-04-06T06:11:09.666Z,14.37
2023-04-06T06:13:37.609Z,13.70
2023-04-06T06:16:06.474Z,10.40
2023-04-06T06:18:34.599Z,12.27
2023-04-06T06:21:02.840Z,13.20
2023-04-06T06:23:30.943Z,11.20
2023-04-06T06:25:59.319Z,14.40
2023-04-06T06:28:27.531Z,13.47
2023-04-06T06:30:55.319Z,12.13
2023-04-06T06:33:23.682Z,16.47
2023-04-06T06:35:52.383Z,10.37
2023-04-06T06:38:22.185Z,15.57
2023-04-06T06:40:51.452Z,9.90
2023-04-06T06:43:19.632Z,13.87
2023-04-06T06:45:47.470Z,17.33
2023-04-06T06:48:15.554Z,13.17
2023-04-06T06:50:43.238Z,16.43
2023-04-06T06:53:11.931Z,14.30
2023-04-06T06:55:42.238Z,19.60
2023-04-06T06:58:10.419Z,10.10
2023-04-06T07:00:38.503Z,15.80
2023-04-06T07:03:06.289Z,13.17
2023-04-06T07:05:34.559Z,12.23
2023-04-06T07:08:02.705Z,11.37
2023-04-06T07:10:29.948Z,17.67
2023-04-06T07:12:57.636Z,9.83
2023-04-06T07:15:25.559Z,8.00
2023-04-06T07:17:55.757Z,12.50
2023-04-06T07:20:23.636Z,8.73
2023-04-06T07:22:52.254Z,10.37
2023-04-06T07:25:20.213Z,10.80
2023-04-06T07:27:49.065Z,11.10
2023-04-06T07:30:17.023Z,7.73
2023-04-06T07:32:45.243Z,9.03
2023-04-06T07:35:13.500Z,12.30
2023-04-06T07:37:41.600Z,9.40
2023-04-06T07:40:11.714Z,6.73
2023-04-06T07:42:39.436Z,10.30
2023-04-06T07:45:08.772Z,7.20
2023-04-06T07:47:37.060Z,9.20
2023-04-06T07:50:06.302Z,6.37
2023-04-06T07:52:35.015Z,9.03
2023-04-06T07:55:04.202Z,8.47
2023-04-06T07:57:32.261Z,9.27
2023-04-06T08:00:00.359Z,6.87
2023-04-06T08:02:28.979Z,7.03
2023-04-06T08:04:57.471Z,7.30
2023-04-06T08:07:25.481Z,6.23
2023-04-06T08:09:53.911Z,6.93
2023-04-06T08:12:22.018Z,8.50
2023-04-06T08:14:49.943Z,6.70
2023-04-06T08:17:18.616Z,7.77
2023-04-06T08:19:46.275Z,10.13
2023-04-06T08:22:14.360Z,10.83
2023-04-06T08:24:43.246Z,11.47
2023-04-06T08:27:11.100Z,9.83
2023-04-06T08:29:39.247Z,11.17
2023-04-06T08:32:07.464Z,9.57
2023-04-06T08:34:34.975Z,8.70
2023-04-06T08:37:02.985Z,10.63
2023-04-06T08:39:32.032Z,9.07
2023-04-06T08:42:00.849Z,11.87
2023-04-06T08:44:31.661Z,7.80
2023-04-06T08:46:58.501Z,8.70
2023-04-06T08:49:26.319Z,9.00
2023-04-06T08:51:54.697Z,6.37
2023-04-06T08:54:23.080Z,7.80
2023-04-06T08:56:50.742Z,9.27
2023-04-06T08:59:18.706Z,6.90
2023-04-06T09:01:47.327Z,10.53
2023-04-06T09:04:15.510Z,8.17
2023-04-06T09:06:43.278Z,7.33
2023-04-06T09:09:10.486Z,7.07
2023-04-06T09:11:47.909Z,6.67
2023-04-06T09:14:16.318Z,9.33
2023-04-06T09:16:43.801Z,8.77
2023-04-06T09:19:11.120Z,7.23
2023-04-06T09:21:40.843Z,7.43
2023-04-06T09:24:09.273Z,8.57
2023-04-06T09:26:48.036Z,9.27
2023-04-06T09:29:28.034Z,8.17
2023-04-06T09:32:04.880Z,6.60
2023-04-06T09:34:32.882Z,9.43
2023-04-06T09:37:00.851Z,9.33
2023-04-06T09:39:29.054Z,6.23
2023-04-06T09:41:57.453Z,10.17
2023-04-06T09:44:25.154Z,11.00
2023-04-06T09:47:00.358Z,6.07
2023-04-06T09:49:32.714Z,6.43
2023-04-06T09:52:06.100Z,8.90
2023-04-06T09:54:34.038Z,7.07
2023-04-06T09:57:23.198Z,5.00
2023-04-06T10:00:14.002Z,5.03
2023-04-06T10:03:00.453Z,8.47
2023-04-06T10:05:34.739Z,6.22
2023-04-06T10:08:05.351Z,5.33
2023-04-06T10:10:33.069Z,6.63
2023-04-06T10:13:01.115Z,6.77
2023-04-06T10:15:31.136Z,5.30
2023-04-06T10:17:59.552Z,5.53
2023-04-06T10:20:40.658Z,6.70
2023-04-06T10:23:17.776Z,6.33
2023-04-06T10:25:58.467Z,6.17
2023-04-06T10:28:29.746Z,7.20
2023-04-06T10:31:29.719Z,7.73
2023-04-06T10:34:01.233Z,7.80
2023-04-06T10:36:33.571Z,5.67
2023-04-06T10:39:03.262Z,5.50
2023-04-06T10:41:35.636Z,6.33
2023-04-06T10:44:03.529Z,5.13
2023-04-06T10:46:32.772Z,7.20
2023-04-06T10:48:59.578Z,5.83
2023-04-06T10:51:30.626Z,6.67
2023-04-06T10:53:58.699Z,9.57
2023-04-06T10:56:28.949Z,7.03
2023-04-06T10:58:57.198Z,12.97
2023-04-06T11:01:26.004Z,6.50
2023-04-06T11:03:56.985Z,6.90
2023-04-06T11:06:25.671Z,9.73
2023-04-06T11:08:53.616Z,6.63
2023-04-06T11:11:21.982Z,8.43
2023-04-06T11:13:52.852Z,7.23
2023-04-06T11:16:23.651Z,6.40
2023-04-06T11:19:04.809Z,6.37
2023-04-06T11:21:44.440Z,7.67
2023-04-06T11:24:11.840Z,7.80
2023-04-06T11:26:59.498Z,7.77
2023-04-06T11:29:31.447Z,8.70
2023-04-06T11:32:03.941Z,7.73
2023-04-06T11:34:32.279Z,9.90
2023-04-06T11:37:01.570Z,8.00
2023-04-06T11:39:29.866Z,6.73
2023-04-06T11:42:00.965Z,11.23
2023-04-06T11:44:40.224Z,9.60
2023-04-06T11:47:09.475Z,7.07
2023-04-06T11:49:40.405Z,11.70
2023-04-06T11:52:22.168Z,7.23
2023-04-06T11:54:50.414Z,9.67
2023-04-06T11:57:17.921Z,11.03
2023-04-06T11:59:45.961Z,7.90
2023-04-06T12:02:13.613Z,9.47
2023-04-06T12:04:44.770Z,13.03
2023-04-06T12:07:12.942Z,7.23
2023-04-06T12:09:41.059Z,11.10
2023-04-06T12:12:09.219Z,8.13
2023-04-06T12:14:36.855Z,8.43
2023-04-06T12:17:04.908Z,8.10
2023-04-06T12:19:33.124Z,9.97
2023-04-06T12:22:01.105Z,9.00
2023-04-06T12:24:30.251Z,9.03
2023-04-06T12:27:08.782Z,9.87
2023-04-06T12:29:38.016Z,7.90
2023-04-06T12:32:07.258Z,9.30
2023-04-06T12:34:35.391Z,8.97
2023-04-06T12:37:03.825Z,10.20
2023-04-06T12:39:31.908Z,8.77
2023-04-06T12:42:00.348Z,10.33
2023-04-06T12:44:28.533Z,9.43
2023-04-06T12:46:56.665Z,8.30
2023-04-06T12:49:24.552Z,9.10
2023-04-06T12:51:52.798Z,8.37
2023-04-06T12:54:24.114Z,8.20
2023-04-06T12:56:52.193Z,12.97
2023-04-06T12:59:20.304Z,9.43
2023-04-06T13:01:48.914Z,7.68
2023-04-06T13:04:16.597Z,10.70
2023-04-06T13:06:44.862Z,10.40
2023-04-06T13:09:12.840Z,11.88
2023-04-06T13:11:42.554Z,9.05
2023-04-06T13:14:10.742Z,10.05
2023-04-06T13:16:38.658Z,9.95
2023-04-06T13:19:06.404Z,11.25
2023-04-06T13:21:34.438Z,9.35
2023-04-06T13:24:03.550Z,11.80
2023-04-06T13:26:31.682Z,10.32
2023-04-06T13:29:01.772Z,10.70
2023-04-06T13:31:30.575Z,8.23
2023-04-06T13:33:58.296Z,11.65
2023-04-06T13:36:26.128Z,8.15
2023-04-06T13:38:55.314Z,9.23
2023-04-06T13:41:23.071Z,7.00
2023-04-06T13:43:50.927Z,14.93
2023-04-06T13:46:18.837Z,11.25
2023-04-06T13:48:47.995Z,7.15
2023-04-06T13:51:16.445Z,10.60
2023-04-06T13:53:44.353Z,6.90
2023-04-06T13:56:12.055Z,8.65
2023-04-06T13:58:39.790Z,7.68
2023-04-06T14:01:09.133Z,8.77
2023-04-06T14:03:37.415Z,7.80
2023-04-06T14:08:45.071Z,10.25
2023-04-06T14:11:13.741Z,15.38
2023-04-06T14:13:41.307Z,23.98
2023-04-06T14:16:08.590Z,7.18
2023-04-06T14:18:37.538Z,8.27
2023-04-06T14:21:06.562Z,8.88
2023-04-06T14:23:34.162Z,6.72
2023-04-06T14:26:09.407Z,8.27
2023-04-06T14:28:37.434Z,8.37
2023-04-06T14:31:12.758Z,8.50
2023-04-06T14:33:39.796Z,8.57
2023-04-06T14:36:09.200Z,7.68
2023-04-06T14:38:37.396Z,7.70
2023-04-06T14:41:05.561Z,7.23
2023-04-06T14:43:34.592Z,8.00
2023-04-06T14:46:03.176Z,9.80
2023-04-06T14:48:30.981Z,7.88
2023-04-06T14:50:59.021Z,8.07
2023-04-06T14:53:26.149Z,10.52
2023-04-06T14:55:54.010Z,7.13
2023-04-06T14:58:21.500Z,7.30
2023-04-06T15:00:48.874Z,10.20
2023-04-06T15:03:16.775Z,7.90
2023-04-06T15:05:44.834Z,9.30
2023-04-06T15:08:13.297Z,7.83
2023-04-06T15:10:41.187Z,7.40
2023-04-06T15:13:09.208Z,7.43
2023-04-06T15:15:38.020Z,9.23
2023-04-06T15:18:07.726Z,8.80
2023-04-06T15:20:35.732Z,8.93
2023-04-06T15:23:04.145Z,7.77
2023-04-06T15:25:32.074Z,9.90
2023-04-06T15:28:00.528Z,7.43
2023-04-06T15:30:29.663Z,9.77
2023-04-06T15:32:58.852Z,9.33
2023-04-06T15:35:26.995Z,10.13
2023-04-06T15:37:55.084Z,10.37
2023-04-06T15:40:23.301Z,14.37
2023-04-06T15:42:50.774Z,11.57
2023-04-06T15:45:18.480Z,9.03
2023-04-06T15:47:47.157Z,11.33
2023-04-06T15:50:15.612Z,8.40
2023-04-06T15:52:43.605Z,7.57
2023-04-06T15:55:19.204Z,21.00
2023-04-06T15:57:47.179Z,11.10
2023-04-06T16:00:18.361Z,8.47
2023-04-06T16:02:46.767Z,26.73
2023-04-06T16:05:14.973Z,10.83
2023-04-06T16:07:43.146Z,13.97
2023-04-06T16:10:12.540Z,6.80
2023-04-06T16:12:42.556Z,10.00
2023-04-06T16:15:12.171Z,8.17
2023-04-06T16:17:39.817Z,13.77
2023-04-06T16:20:10.854Z,7.97
2023-04-06T16:22:38.364Z,8.17
2023-04-06T16:25:06.991Z,9.53
2023-04-06T16:27:34.951Z,9.13
2023-04-06T16:32:31.097Z,10.07
2023-04-06T16:34:59.112Z,9.37
2023-04-06T16:37:29.672Z,7.77
2023-04-06T16:39:57.443Z,10.27
2023-04-06T16:42:24.971Z,9.50
2023-04-06T16:44:52.668Z,7.87
2023-04-06T16:47:20.721Z,11.50
2023-04-06T16:49:48.869Z,7.70
2023-04-06T16:52:16.950Z,8.20
2023-04-06T16:54:44.953Z,10.27
2023-04-06T16:57:13.686Z,12.67
2023-04-06T16:59:42.490Z,9.17
2023-04-06T17:02:10.596Z,8.37
2023-04-06T17:04:38.825Z,10.00
2023-04-06T17:07:07.697Z,9.23
2023-04-06T17:09:35.465Z,9.17
2023-04-06T17:12:03.785Z,8.80
2023-04-06T17:14:32.074Z,9.50
2023-04-06T17:16:59.821Z,10.10
2023-04-06T17:19:27.780Z,16.50
2023-04-06T17:21:55.720Z,13.97
2023-04-06T17:24:23.204Z,8.27
2023-04-06T17:26:51.012Z,9.33
2023-04-06T17:29:19.318Z,7.80
2023-04-06T17:31:46.923Z,11.67
2023-04-06T17:34:15.379Z,11.83
2023-04-06T17:36:43.051Z,8.67
2023-04-06T17:39:11.875Z,9.57
2023-04-06T17:41:39.711Z,8.23
2023-04-06T17:44:07.350Z,9.00
2023-04-06T17:46:35.033Z,9.63
2023-04-06T17:49:02.860Z,16.03
2023-04-06T17:51:31.398Z,13.23
2023-04-06T17:53:59.100Z,8.23
2023-04-06T17:56:27.711Z,11.23
2023-04-06T17:58:58.548Z,12.17
2023-04-06T18:01:26.307Z,12.37
2023-04-06T18:03:54.099Z,9.90
2023-04-06T18:06:25.572Z,16.57
2023-04-06T18:08:54.111Z,9.87
2023-04-06T18:11:25.682Z,10.13
2023-04-06T18:13:54.026Z,11.37
2023-04-06T18:16:22.035Z,13.13
2023-04-06T18:18:50.223Z,11.57
2023-04-06T18:21:18.098Z,9.93
2023-04-06T18:23:45.594Z,22.10
2023-04-06T18:26:17.718Z,39.57
2023-04-06T18:28:45.532Z,35.40
2023-04-06T18:31:12.628Z,31.90
2023-04-06T18:33:40.374Z,31.43
2023-04-06T18:36:10.423Z,36.97
2023-04-06T18:38:42.241Z,38.77
2023-04-06T18:41:10.057Z,35.47
2023-04-06T18:43:38.188Z,36.80
2023-04-06T18:46:11.084Z,35.27
2023-04-06T18:48:39.065Z,49.00
2023-04-06T18:51:07.210Z,58.13
2023-04-06T18:53:35.115Z,48.10
2023-04-06T18:56:04.147Z,47.17
2023-04-06T18:58:31.339Z,42.37
2023-04-06T19:00:59.461Z,47.97
2023-04-06T19:03:31.372Z,44.97
2023-04-06T19:05:59.831Z,39.20
2023-04-06T19:08:28.321Z,49.97
2023-04-06T19:10:56.024Z,52.83
2023-04-06T19:13:24.147Z,60.20
2023-04-06T19:15:52.138Z,43.77
2023-04-06T19:18:20.378Z,31.07
2023-04-06T19:20:48.420Z,19.53
2023-04-06T19:23:16.687Z,26.43
2023-04-06T19:25:44.268Z,19.27
2023-04-06T19:28:12.344Z,17.53
2023-04-06T19:30:47.584Z,14.23
2023-04-06T19:33:16.370Z,18.30
2023-04-06T19:35:44.584Z,19.60
2023-04-06T19:38:12.642Z,17.93
2023-04-06T19:40:40.727Z,20.33
2023-04-06T19:43:08.734Z,18.97
2023-04-06T19:45:36.230Z,15.37
2023-04-06T19:48:04.496Z,14.63
2023-04-06T19:50:36.289Z,19.23
2023-04-06T19:53:03.757Z,21.30
2023-04-06T19:55:32.438Z,28.63
2023-04-06T19:58:00.258Z,24.00
2023-04-06T20:00:28.534Z,20.10
2023-04-06T20:02:56.966Z,21.77
2023-04-06T20:05:25.216Z,25.93
2023-04-06T20:07:53.257Z,19.57
2023-04-06T20:10:20.935Z,18.93
2023-04-06T20:12:50.532Z,20.50
2023-04-06T20:15:23.015Z,20.67
2023-04-06T20:17:51.390Z,19.13
2023-04-06T20:20:19.763Z,20.83
2023-04-06T20:22:50.320Z,24.67
2023-04-06T20:25:19.180Z,26.47
2023-04-06T20:27:46.338Z,25.50
2023-04-06T20:30:17.216Z,17.00
2023-04-06T20:32:45.244Z,17.53
2023-04-06T20:35:13.568Z,18.97
2023-04-06T20:37:42.154Z,20.10
2023-04-06T20:40:12.874Z,16.27
2023-04-06T20:42:40.481Z,17.60
2023-04-06T20:45:10.660Z,14.77
2023-04-06T20:47:38.975Z,21.93
2023-04-06T20:50:09.255Z,23.70
2023-04-06T20:52:38.199Z,17.47
2023-04-06T20:55:07.350Z,17.50
2023-04-06T20:57:41.846Z,19.33
2023-04-06T21:00:12.268Z,17.30
2023-04-06T21:02:42.894Z,20.43
2023-04-06T21:05:11.496Z,15.43
2023-04-06T21:07:39.744Z,17.50
2023-04-06T21:10:10.594Z,18.93
2023-04-06T21:12:38.613Z,18.10
2023-04-06T21:15:09.279Z,17.83
2023-04-06T21:17:37.214Z,18.87
2023-04-06T21:20:06.430Z,16.07
2023-04-06T21:22:34.207Z,19.07
2023-04-06T21:25:02.216Z,18.53
2023-04-06T21:27:30.042Z,18.90
2023-04-06T21:29:58.216Z,19.73
2023-04-06T21:32:26.284Z,17.40
2023-04-06T21:34:54.455Z,20.67
2023-04-06T21:37:22.028Z,19.03
2023-04-06T21:39:50.011Z,16.73
2023-04-06T21:42:18.175Z,17.50
2023-04-06T21:44:45.627Z,15.67
2023-04-06T21:47:13.712Z,15.53
2023-04-06T21:49:42.100Z,19.30
2023-04-06T21:52:10.722Z,17.03
2023-04-06T21:54:38.796Z,15.10
2023-04-06T21:57:06.774Z,16.43
2023-04-06T21:59:34.448Z,15.20
2023-04-06T22:02:02.803Z,18.10
2023-04-06T22:04:32.018Z,23.80
2023-04-06T22:06:59.850Z,16.57
2023-04-06T22:09:27.984Z,17.67
2023-04-06T22:11:55.871Z,18.53
2023-04-06T22:14:23.678Z,18.33
2023-04-06T22:16:51.465Z,15.30
2023-04-06T22:19:22.713Z,14.07
2023-04-06T22:21:51.070Z,17.00
2023-04-06T22:24:19.151Z,12.40
2023-04-06T22:26:47.406Z,17.33
2023-04-06T22:29:14.993Z,29.90
2023-04-06T22:31:44.250Z,19.97
2023-04-06T22:34:13.704Z,20.20
2023-04-06T22:36:42.135Z,20.03
2023-04-06T22:39:10.058Z,17.33
2023-04-06T22:41:38.314Z,14.70
2023-04-06T22:44:05.817Z,17.40
2023-04-06T22:46:33.916Z,18.43
2023-04-06T22:49:01.861Z,16.50
2023-04-06T22:51:29.452Z,16.70
2023-04-06T22:53:57.568Z,15.23
2023-04-06T22:56:25.818Z,16.17
2023-04-06T22:58:53.389Z,13.43
2023-04-06T23:01:21.382Z,14.37
2023-04-06T23:03:49.454Z,17.23
2023-04-06T23:06:17.105Z,13.20
2023-04-06T23:08:44.823Z,13.33
2023-04-06T23:11:12.384Z,13.77
2023-04-06T23:13:40.570Z,13.87
2023-04-06T23:16:10.991Z,12.87
2023-04-06T23:18:38.520Z,13.33
2023-04-06T23:21:08.896Z,14.17
2023-04-06T23:23:36.670Z,14.47
2023-04-06T23:26:05.251Z,13.37
2023-04-06T23:28:33.211Z,13.70
2023-04-06T23:31:01.616Z,14.43
2023-04-06T23:33:29.478Z,16.43
2023-04-06T23:35:57.239Z,11.87
2023-04-06T23:38:25.010Z,13.93
2023-04-06T23:40:52.929Z,13.30
2023-04-06T23:43:20.715Z,14.17
2023-04-06T23:45:48.793Z,13.03
2023-04-06T23:48:17.172Z,14.80
2023-04-06T23:50:45.250Z,17.07
2023-04-06T23:53:12.887Z,15.23
2023-04-06T23:55:40.766Z,16.30
2023-04-06T23:58:08.599Z,13.17
